Time;durP1;ratioP1;P1;durP2;ratioP2;P2;SDS_P1;SDS_P2;PMS_P1;PMS_P2;Temp;Humidity;BMP_temperature;BMP_pressure;BME280_temperature;BME280_humidity;BME280_pressure;Samples;Min_cycle;Max_cycle;Signal;HPM_P1;HPM_P2
2022/10/23 00:00:59;;;;;;;13.10;9.05;;;19.10;81.90;;;;;;5012116;28;20117;-58
2022/10/23 00:03:25;;;;;;;10.77;7.78;;;19.00;81.80;;;;;;5010597;28;20450;-58
2022/10/23 00:05:51;;;;;;;15.15;8.85;;;19.00;81.90;;;;;;5012024;28;20077;-58
2022/10/23 00:08:16;;;;;;;12.15;8.40;;;19.00;81.90;;;;;;5011989;28;20105;-58
2022/10/23 00:10:43;;;;;;;12.57;8.63;;;19.00;82.40;;;;;;5011999;28;20105;-58
2022/10/23 00:13:09;;;;;;;11.55;9.20;;;19.00;81.90;;;;;;5011748;28;20028;-57
2022/10/23 00:15:35;;;;;;;10.13;7.45;;;19.00;81.70;;;;;;5012062;28;20034;-58
2022/10/23 00:18:03;;;;;;;10.75;7.88;;;19.00;81.60;;;;;;5012199;28;20037;-55
2022/10/23 00:20:28;;;;;;;9.63;7.50;;;19.00;81.80;;;;;;5011687;28;20034;-56
2022/10/23 00:22:54;;;;;;;14.70;8.68;;;19.00;81.80;;;;;;5011479;28;20088;-58
2022/10/23 00:25:20;;;;;;;14.73;8.32;;;19.10;81.70;;;;;;5011654;28;20117;-60
2022/10/23 00:27:45;;;;;;;8.38;7.25;;;19.10;81.70;;;;;;5011525;28;20041;-58
2022/10/23 00:30:12;;;;;;;16.77;9.45;;;19.10;81.60;;;;;;5011124;28;20030;-56
2022/10/23 00:32:38;;;;;;;11.32;8.20;;;19.10;81.50;;;;;;5011750;28;20578;-60
2022/10/23 00:35:04;;;;;;;11.02;7.90;;;19.10;81.50;;;;;;5011710;28;20122;-57
2022/10/23 00:37:30;;;;;;;15.27;8.63;;;19.10;81.60;;;;;;5009969;28;20029;-58
2022/10/23 00:39:56;;;;;;;10.25;7.68;;;19.00;81.50;;;;;;5011439;28;20030;-58
2022/10/23 00:42:22;;;;;;;8.75;6.93;;;19.00;81.60;;;;;;5012306;28;20045;-57
2022/10/23 00:44:50;;;;;;;9.57;7.07;;;19.00;81.60;;;;;;5016073;28;20188;-58
2022/10/23 00:47:16;;;;;;;10.25;7.15;;;19.00;81.60;;;;;;5015200;28;20037;-59
2022/10/23 00:49:42;;;;;;;9.40;7.13;;;19.00;81.60;;;;;;5015650;28;20040;-60
2022/10/23 00:52:10;;;;;;;10.40;6.85;;;19.00;81.60;;;;;;5015632;28;20022;-59
2022/10/23 00:54:39;;;;;;;10.68;7.68;;;19.00;81.60;;;;;;5015179;28;20038;-60
2022/10/23 00:57:08;;;;;;;7.75;6.75;;;19.00;81.50;;;;;;5015412;28;20533;-58
2022/10/23 00:59:34;;;;;;;10.50;7.75;;;19.00;81.50;;;;;;5014672;28;20048;-58
2022/10/23 01:01:59;;;;;;;9.65;7.03;;;19.00;81.30;;;;;;5013991;28;20026;-55
2022/10/23 01:04:26;;;;;;;10.77;7.18;;;19.10;81.20;;;;;;5015326;28;20076;-58
2022/10/23 01:07:11;;;;;;;;;;;19.10;81.10;;;;;;5015488;28;20494;-58
2022/10/23 01:09:57;;;;;;;8.23;6.60;;;19.00;80.90;;;;;;5014772;28;20043;-58
2022/10/23 01:12:53;;;;;;;9.30;6.55;;;19.00;81.10;;;;;;5014834;28;20142;-57
2022/10/23 01:15:27;;;;;;;9.05;7.13;;;19.10;81.30;;;;;;5014871;28;20026;-60
2022/10/23 01:17:56;;;;;;;13.77;7.10;;;19.10;81.10;;;;;;5015361;28;20103;-58
2022/10/23 01:20:34;;;;;;;8.50;6.88;;;19.00;81.10;;;;;;5015321;28;20026;-57
2022/10/23 01:23:20;;;;;;;9.35;6.75;;;19.00;81.20;;;;;;5014780;28;20121;-58
2022/10/23 01:26:08;;;;;;;8.68;6.95;;;19.00;81.10;;;;;;5013548;28;20091;-57
2022/10/23 01:28:37;;;;;;;8.90;6.93;;;19.00;80.80;;;;;;5014680;28;20026;-57
2022/10/23 01:31:10;;;;;;;9.25;7.70;;;18.90;81.20;;;;;;5014720;28;20197;-58
2022/10/23 01:33:43;;;;;;;11.48;7.93;;;18.90;81.30;;;;;;5015020;28;20064;-57
2022/10/23 01:36:23;;;;;;;8.35;6.85;;;18.90;81.30;;;;;;5014312;28;20033;-60
2022/10/23 01:38:57;;;;;;;10.20;7.40;;;18.90;81.30;;;;;;5013111;28;20498;-57
2022/10/23 01:41:31;;;;;;;11.68;6.70;;;18.90;81.30;;;;;;5008428;28;20118;-58
2022/10/23 01:44:07;;;;;;;10.75;6.75;;;18.90;81.30;;;;;;5014844;28;20042;-56
2022/10/23 01:46:37;;;;;;;7.40;6.60;;;18.90;81.30;;;;;;5014223;28;20026;-60
2022/10/23 01:49:06;;;;;;;10.30;7.25;;;18.90;81.30;;;;;;5013938;28;20265;-58
2022/10/23 01:51:35;;;;;;;10.85;6.60;;;18.90;81.30;;;;;;5014590;28;20076;-58
2022/10/23 01:54:04;;;;;;;9.63;6.88;;;18.90;81.30;;;;;;5013888;28;20395;-58
2022/10/23 01:56:33;;;;;;;13.48;8.20;;;18.90;81.30;;;;;;5014185;28;20478;-57
2022/10/23 01:59:05;;;;;;;11.90;6.97;;;18.90;81.20;;;;;;5039029;22;20029;-68
2022/10/23 02:01:33;;;;;;;7.22;6.25;;;18.90;81.20;;;;;;5040601;28;20026;-69
2022/10/23 02:04:01;;;;;;;8.70;6.45;;;18.90;81.30;;;;;;5035742;28;20033;-69
2022/10/23 02:06:28;;;;;;;8.52;6.28;;;18.90;81.20;;;;;;5032793;28;20091;-69
2022/10/23 02:08:53;;;;;;;11.23;7.80;;;18.90;81.20;;;;;;5033883;28;20554;-69
2022/10/23 02:11:20;;;;;;;8.48;7.03;;;18.90;81.10;;;;;;5044017;28;20021;-69
2022/10/23 02:13:58;;;;;;;9.30;6.80;;;18.90;81.20;;;;;;5045748;28;20059;-69
2022/10/23 02:16:30;;;;;;;;;;;18.90;81.20;;;;;;5032868;28;20044;-69
2022/10/23 02:19:33;;;;;;;8.20;6.50;;;19.00;81.30;;;;;;5049605;28;19905;-69
2022/10/23 02:22:11;;;;;;;14.88;7.65;;;18.90;81.30;;;;;;5053907;28;20053;-69
2022/10/23 02:25:16;;;;;;;9.05;6.43;;;18.90;81.50;;;;;;5053091;28;20033;-70
2022/10/23 02:27:53;;;;;;;9.60;6.93;;;18.90;81.30;;;;;;5052769;28;20132;-69
2022/10/23 02:30:20;;;;;;;7.90;6.75;;;18.90;81.40;;;;;;5053045;28;20539;-69
2022/10/23 02:32:51;;;;;;;11.18;7.72;;;18.90;81.30;;;;;;5052529;28;20374;-69
2022/10/23 02:35:19;;;;;;;8.07;7.22;;;18.80;81.30;;;;;;5053147;28;20039;-69
2022/10/23 02:37:53;;;;;;;10.63;7.72;;;18.80;81.40;;;;;;5051573;28;20029;-69
2022/10/23 02:40:19;;;;;;;11.13;7.10;;;18.80;81.40;;;;;;5053198;28;20029;-69
2022/10/23 02:42:56;;;;;;;13.70;7.68;;;18.70;81.40;;;;;;5052947;28;20028;-69
2022/10/23 02:45:57;;;;;;;11.20;7.77;;;18.70;81.60;;;;;;5053337;28;20033;-69
2022/10/23 02:48:38;;;;;;;9.50;7.25;;;18.70;81.60;;;;;;5047681;28;20044;-69
2022/10/23 02:51:18;;;;;;;10.45;7.65;;;18.60;81.70;;;;;;5045623;28;20573;-69
2022/10/23 02:54:02;;;;;;;8.52;7.63;;;18.60;82.00;;;;;;5049680;28;20028;-69
2022/10/23 02:56:36;;;;;;;11.23;7.55;;;18.50;82.20;;;;;;5051848;28;20501;-69
2022/10/23 02:59:13;;;;;;;13.40;7.75;;;18.40;82.40;;;;;;5032864;28;20037;-69
2022/10/23 03:01:49;;;;;;;9.80;7.20;;;18.40;82.50;;;;;;5047348;28;20082;-69
2022/10/23 03:04:18;;;;;;;10.88;8.20;;;18.40;82.50;;;;;;5050378;28;20076;-69
2022/10/23 03:06:44;;;;;;;11.52;7.88;;;18.30;82.50;;;;;;5052189;28;20029;-69
2022/10/23 03:09:10;;;;;;;7.90;7.10;;;18.30;82.50;;;;;;5032791;28;20022;-69
2022/10/23 03:11:36;;;;;;;10.63;7.90;;;18.30;82.50;;;;;;5048804;28;20063;-69
2022/10/23 03:14:02;;;;;;;11.10;8.27;;;18.30;82.50;;;;;;5052359;28;20457;-69
2022/10/23 03:16:27;;;;;;;10.35;7.60;;;18.30;82.50;;;;;;5052661;28;20097;-69
2022/10/23 03:18:54;;;;;;;9.77;7.82;;;18.20;82.50;;;;;;5051754;28;20056;-69
2022/10/23 03:21:20;;;;;;;10.30;8.25;;;18.20;82.80;;;;;;5051390;28;20037;-68
2022/10/23 03:23:46;;;;;;;13.38;8.40;;;18.20;82.80;;;;;;5052115;28;20021;-68
2022/10/23 03:26:11;;;;;;;12.95;9.13;;;18.20;82.80;;;;;;5051204;28;20110;-69
2022/10/23 03:28:37;;;;;;;17.70;7.75;;;18.10;82.90;;;;;;5052270;28;20021;-69
2022/10/23 03:31:03;;;;;;;14.15;7.75;;;18.10;83.10;;;;;;5046708;28;20017;-69
2022/10/23 03:33:32;;;;;;;11.05;7.55;;;18.10;82.90;;;;;;5050852;28;20032;-68
2022/10/23 03:35:58;;;;;;;10.75;8.00;;;18.10;83.30;;;;;;5052285;28;20039;-69
2022/10/23 03:38:23;;;;;;;14.02;8.13;;;18.10;83.30;;;;;;5052105;28;20111;-69
2022/10/23 03:40:49;;;;;;;12.13;7.65;;;18.00;83.30;;;;;;5045818;28;20489;-69
2022/10/23 03:43:15;;;;;;;11.40;9.32;;;18.00;83.30;;;;;;5032321;28;20074;-69
2022/10/23 03:45:40;;;;;;;11.63;8.18;;;18.10;83.30;;;;;;5033484;28;20120;-69
2022/10/23 03:48:06;;;;;;;12.85;8.45;;;18.00;83.40;;;;;;5046648;28;20396;-68
2022/10/23 03:50:33;;;;;;;10.33;8.47;;;18.00;83.50;;;;;;5047521;28;20052;-68
2022/10/23 03:52:59;;;;;;;13.07;8.93;;;18.00;83.60;;;;;;5051761;28;20413;-68
2022/10/23 03:55:25;;;;;;;10.38;7.75;;;18.00;83.60;;;;;;5051569;28;20032;-69
2022/10/23 03:57:54;;;;;;;11.20;7.90;;;18.00;83.50;;;;;;5051812;28;20020;-69
2022/10/23 04:00:21;;;;;;;14.45;8.32;;;17.90;83.40;;;;;;5050169;28;20361;-69
2022/10/23 04:02:47;;;;;;;15.35;8.13;;;17.90;83.50;;;;;;5051542;28;20033;-69
2022/10/23 04:05:13;;;;;;;18.80;8.60;;;17.90;83.70;;;;;;5035637;28;20025;-70
2022/10/23 04:07:38;;;;;;;10.57;8.82;;;17.80;83.90;;;;;;5051977;28;20112;-69
2022/10/23 04:10:05;;;;;;;19.88;8.52;;;17.80;83.90;;;;;;5051446;28;20025;-69
2022/10/23 04:12:31;;;;;;;11.82;7.32;;;17.90;83.90;;;;;;5050439;28;20035;-69
2022/10/23 04:14:56;;;;;;;14.23;8.45;;;17.80;83.80;;;;;;5050201;28;20029;-69
2022/10/23 04:17:22;;;;;;;18.95;8.75;;;17.80;83.90;;;;;;5049214;28;20067;-69
2022/10/23 04:19:47;;;;;;;11.57;7.78;;;17.80;84.60;;;;;;5049581;28;20032;-70
2022/10/23 04:22:13;;;;;;;12.25;8.00;;;17.80;84.00;;;;;;5049847;28;20279;-69
2022/10/23 04:24:44;;;;;;;14.18;8.45;;;17.80;84.00;;;;;;5050977;28;20017;-69
2022/10/23 04:27:09;;;;;;;12.52;8.43;;;17.70;84.00;;;;;;5051066;28;20028;-69
2022/10/23 04:29:35;;;;;;;11.52;7.63;;;17.70;84.10;;;;;;5051051;28;20098;-69
2022/10/23 04:32:01;;;;;;;14.02;7.65;;;17.70;84.20;;;;;;5051392;28;20029;-69
2022/10/23 04:34:26;;;;;;;11.13;8.02;;;17.70;84.20;;;;;;5051634;28;20099;-69
2022/10/23 04:36:52;;;;;;;10.52;7.68;;;17.70;84.20;;;;;;5051465;28;20033;-69
2022/10/23 04:39:18;;;;;;;12.02;7.80;;;17.70;84.10;;;;;;5049799;28;20063;-69
2022/10/23 04:41:44;;;;;;;11.20;7.47;;;17.70;84.20;;;;;;5051366;28;20071;-69
2022/10/23 04:44:09;;;;;;;10.07;7.60;;;17.70;84.20;;;;;;5051273;28;20025;-69
2022/10/23 04:46:35;;;;;;;11.05;7.22;;;17.70;84.10;;;;;;5051047;28;20098;-69
2022/10/23 04:49:01;;;;;;;13.90;7.80;;;17.70;84.20;;;;;;5050822;28;20019;-69
2022/10/23 04:51:26;;;;;;;11.57;7.82;;;17.70;84.40;;;;;;5050608;28;20482;-69
2022/10/23 04:53:52;;;;;;;10.93;7.72;;;17.70;84.50;;;;;;5050923;28;20096;-69
2022/10/23 04:56:18;;;;;;;12.15;7.50;;;17.70;84.50;;;;;;5051150;28;20029;-69
2022/10/23 04:58:43;;;;;;;9.65;7.00;;;17.70;84.50;;;;;;5051200;28;20021;-69
2022/10/23 05:01:09;;;;;;;13.18;7.57;;;17.70;84.60;;;;;;5050778;28;20112;-70
2022/10/23 05:03:36;;;;;;;12.25;7.93;;;17.70;84.50;;;;;;5049894;28;20021;-69
2022/10/23 05:06:02;;;;;;;;;;;17.60;84.50;;;;;;5050437;28;20029;-69
2022/10/23 05:08:28;;;;;;;14.23;7.95;;;17.60;84.70;;;;;;5050062;28;19932;-70
2022/10/23 05:10:54;;;;;;;10.55;7.07;;;17.60;84.70;;;;;;5049643;28;20025;-69
2022/10/23 05:13:20;;;;;;;11.27;7.95;;;17.60;84.70;;;;;;5051176;28;20055;-70
2022/10/23 05:15:47;;;;;;;11.30;8.00;;;17.60;84.70;;;;;;5051172;28;20029;-69
2022/10/23 05:18:20;;;;;;;11.80;8.15;;;17.60;84.80;;;;;;5051074;28;20083;-69
2022/10/23 05:20:48;;;;;;;18.90;9.27;;;17.60;84.80;;;;;;5050872;28;20029;-69
2022/10/23 05:23:16;;;;;;;12.55;7.47;;;17.60;84.90;;;;;;5051034;28;20017;-69
2022/10/23 05:25:42;;;;;;;10.35;7.80;;;17.60;85.00;;;;;;5050929;28;20033;-69
2022/10/23 05:28:08;;;;;;;11.07;8.23;;;17.60;84.90;;;;;;5051166;28;20167;-69
2022/10/23 05:30:33;;;;;;;14.50;7.85;;;17.60;84.90;;;;;;5054313;28;20029;-69
2022/10/23 05:33:01;;;;;;;11.82;7.63;;;17.60;85.00;;;;;;5054425;28;20027;-69
2022/10/23 05:35:28;;;;;;;20.10;8.77;;;17.60;85.00;;;;;;5053133;28;20040;-69
2022/10/23 05:37:54;;;;;;;;;;;17.60;85.00;;;;;;5054801;28;20052;-69
2022/10/23 05:40:20;;;;;;;14.98;7.28;;;17.60;85.10;;;;;;5053913;28;19909;-69
2022/10/23 05:42:46;;;;;;;10.38;7.57;;;17.50;85.00;;;;;;5054086;28;20028;-61
2022/10/23 05:45:12;;;;;;;12.70;7.55;;;17.50;84.90;;;;;;5054198;28;20025;-61
2022/10/23 05:47:37;;;;;;;11.23;7.53;;;17.50;85.10;;;;;;5054593;28;20362;-61
2022/10/23 05:50:03;;;;;;;11.90;8.07;;;17.40;85.10;;;;;;5050212;28;20028;-61
2022/10/23 05:52:29;;;;;;;11.73;7.57;;;17.50;85.70;;;;;;5054428;28;20029;-61
2022/10/23 05:54:54;;;;;;;12.75;7.32;;;17.30;85.30;;;;;;5054467;28;20535;-61
2022/10/23 05:57:20;;;;;;;9.45;7.07;;;17.40;85.60;;;;;;5054285;28;20392;-61
2022/10/23 05:59:46;;;;;;;10.57;7.53;;;17.30;85.80;;;;;;5053742;28;20033;-63
2022/10/23 06:02:11;;;;;;;12.77;8.60;;;17.30;85.90;;;;;;5054299;28;20029;-61
2022/10/23 06:04:37;;;;;;;12.32;8.07;;;17.30;85.80;;;;;;5053947;28;20025;-61
2022/10/23 06:07:03;;;;;;;10.73;7.57;;;17.30;85.60;;;;;;5054171;28;20033;-62
2022/10/23 06:09:29;;;;;;;12.40;7.65;;;17.40;85.60;;;;;;5053708;28;20029;-61
2022/10/23 06:11:54;;;;;;;12.57;7.90;;;17.40;85.70;;;;;;5054081;28;20032;-62
2022/10/23 06:14:20;;;;;;;10.93;7.80;;;17.40;85.70;;;;;;5053909;28;20025;-62
2022/10/23 06:16:46;;;;;;;11.27;7.18;;;17.40;85.80;;;;;;5053967;28;20485;-61
2022/10/23 06:19:12;;;;;;;11.27;7.38;;;17.40;85.80;;;;;;5053504;28;20028;-62
2022/10/23 06:21:39;;;;;;;12.15;8.30;;;17.50;85.80;;;;;;5054229;28;20033;-62
2022/10/23 06:24:06;;;;;;;13.60;7.90;;;17.50;85.70;;;;;;5053894;28;20381;-61
2022/10/23 06:26:31;;;;;;;;;;;17.50;85.80;;;;;;5054091;28;20063;-61
2022/10/23 06:28:58;;;;;;;9.27;7.15;;;17.50;85.70;;;;;;5053560;28;19944;-61
2022/10/23 06:31:25;;;;;;;11.10;7.67;;;17.50;85.80;;;;;;5053459;28;20017;-61
2022/10/23 06:33:52;;;;;;;10.50;7.18;;;17.60;85.70;;;;;;5053493;28;20033;-62
2022/10/23 06:36:17;;;;;;;9.57;6.95;;;17.70;85.60;;;;;;5050690;28;20547;-61
2022/10/23 06:38:43;;;;;;;10.98;7.53;;;17.70;85.50;;;;;;5052704;28;20028;-61
2022/10/23 06:41:15;;;;;;;11.13;8.18;;;17.80;85.40;;;;;;5043539;28;20028;-64
2022/10/23 06:43:41;;;;;;;9.50;8.10;;;17.90;85.30;;;;;;5035996;28;20441;-61
2022/10/23 06:46:07;;;;;;;15.05;10.27;;;17.90;85.30;;;;;;5052872;28;20021;-68
2022/10/23 06:48:32;;;;;;;10.52;7.00;;;18.00;85.40;;;;;;5052992;28;20078;-68
2022/10/23 06:51:03;;;;;;;12.18;7.53;;;18.00;85.30;;;;;;5053064;28;20029;-68
2022/10/23 06:53:28;;;;;;;16.48;8.23;;;18.00;85.20;;;;;;5041390;28;20057;-68
2022/10/23 06:55:59;;;;;;;8.88;6.55;;;18.10;85.30;;;;;;5053318;28;20064;-68
2022/10/23 06:58:25;;;;;;;18.73;7.63;;;18.10;85.60;;;;;;5052975;28;20112;-68
2022/10/23 07:00:51;;;;;;;12.57;7.18;;;18.10;85.60;;;;;;5035657;28;20139;-68
2022/10/23 07:03:16;;;;;;;10.30;7.28;;;18.20;85.50;;;;;;5050904;28;20049;-68
2022/10/23 07:05:46;;;;;;;11.80;7.35;;;18.30;85.30;;;;;;5052974;28;20062;-68
2022/10/23 07:08:12;;;;;;;13.65;8.07;;;18.30;85.10;;;;;;5051933;28;20094;-68
2022/10/23 07:10:41;;;;;;;18.85;6.80;;;18.40;85.10;;;;;;5052739;28;20021;-68
2022/10/23 07:13:10;;;;;;;9.55;6.18;;;18.40;85.10;;;;;;5052844;28;20021;-68
2022/10/23 07:15:37;;;;;;;13.35;6.57;;;18.50;85.00;;;;;;5051226;28;20493;-68
2022/10/23 07:18:04;;;;;;;10.73;5.93;;;18.60;84.80;;;;;;5039974;28;20442;-68
2022/10/23 07:20:29;;;;;;;8.75;6.38;;;18.60;84.70;;;;;;5032417;28;20036;-68
2022/10/23 07:22:56;;;;;;;8.98;5.80;;;18.70;84.50;;;;;;5033238;28;20029;-68
2022/10/23 07:25:23;;;;;;;11.85;6.07;;;18.70;84.10;;;;;;5052256;28;20033;-68
2022/10/23 07:27:49;;;;;;;9.85;5.18;;;18.80;84.00;;;;;;5051065;28;20242;-68
2022/10/23 07:30:15;;;;;;;9.73;5.55;;;18.90;83.70;;;;;;5052260;28;20025;-68
2022/10/23 07:32:42;;;;;;;8.73;5.75;;;18.90;83.40;;;;;;5051203;28;20478;-68
2022/10/23 07:35:09;;;;;;;7.85;5.28;;;19.00;82.90;;;;;;5050779;28;20056;-68
2022/10/23 07:37:35;;;;;;;9.85;5.20;;;19.00;82.70;;;;;;5051322;28;20098;-68
2022/10/23 07:40:02;;;;;;;10.00;5.00;;;19.10;82.60;;;;;;5051059;28;20029;-68
2022/10/23 07:42:28;;;;;;;12.30;6.15;;;19.20;82.00;;;;;;5052606;28;20028;-68
2022/10/23 07:44:53;;;;;;;9.80;4.90;;;19.20;81.60;;;;;;5036459;28;20032;-69
2022/10/23 07:47:19;;;;;;;8.90;5.20;;;19.30;82.00;;;;;;5052147;28;20037;-68
2022/10/23 07:49:46;;;;;;;11.15;5.28;;;19.30;81.10;;;;;;5052187;28;20017;-68
2022/10/23 07:52:13;;;;;;;11.00;5.65;;;19.30;80.80;;;;;;5051765;28;20025;-68
2022/10/23 07:54:38;;;;;;;7.80;5.00;;;19.40;80.80;;;;;;5050574;28;20033;-68
2022/10/23 07:57:06;;;;;;;11.65;5.32;;;19.40;80.20;;;;;;5050938;28;20082;-67
2022/10/23 07:59:32;;;;;;;9.90;5.65;;;19.40;80.40;;;;;;5074925;22;20155;-59
2022/10/23 08:01:58;;;;;;;9.05;4.30;;;19.40;79.70;;;;;;5051694;28;20039;-59
2022/10/23 08:04:24;;;;;;;10.30;5.07;;;19.40;80.00;;;;;;5036437;28;20021;-59
2022/10/23 08:06:49;;;;;;;10.45;5.40;;;19.40;80.40;;;;;;5032046;28;20156;-59
2022/10/23 08:09:15;;;;;;;12.23;5.72;;;19.50;80.00;;;;;;5031730;28;20068;-60
2022/10/23 08:11:41;;;;;;;12.88;6.80;;;19.60;79.90;;;;;;5065717;28;20477;-59
2022/10/23 08:14:07;;;;;;;11.75;6.32;;;19.60;79.00;;;;;;5050978;28;20025;-60
2022/10/23 08:16:35;;;;;;;10.32;4.97;;;19.60;79.70;;;;;;5031774;28;20033;-52
2022/10/23 08:19:00;;;;;;;9.32;5.65;;;19.70;79.80;;;;;;5045895;28;20044;-56
2022/10/23 08:21:26;;;;;;;6.63;4.45;;;19.80;79.70;;;;;;5051687;28;20040;-53
2022/10/23 08:23:57;;;;;;;8.67;4.97;;;19.80;79.70;;;;;;5051736;28;20028;-55
2022/10/23 08:26:24;;;;;;;9.88;4.88;;;19.80;79.50;;;;;;5051680;28;20774;-56
2022/10/23 08:28:50;;;;;;;8.98;5.93;;;19.90;79.10;;;;;;5050267;28;20024;-53
2022/10/23 08:31:19;;;;;;;12.20;5.70;;;19.90;78.80;;;;;;5051586;28;20431;-55
2022/10/23 08:33:44;;;;;;;10.52;4.93;;;20.00;78.40;;;;;;5051944;28;20385;-53
2022/10/23 08:36:28;;;;;;;11.73;6.25;;;20.00;78.60;;;;;;5051742;28;20025;-53
2022/10/23 08:38:56;;;;;;;11.02;5.10;;;20.20;77.60;;;;;;5051510;28;20055;-54
2022/10/23 08:41:33;;;;;;;8.60;4.85;;;20.20;78.20;;;;;;5051497;28;20111;-52
2022/10/23 08:44:17;;;;;;;9.13;5.40;;;20.30;77.50;;;;;;5051579;28;20021;-54
2022/10/23 08:47:04;;;;;;;14.63;6.10;;;20.30;77.20;;;;;;5051463;28;20021;-56
2022/10/23 08:49:34;;;;;;;8.15;5.00;;;20.30;77.70;;;;;;5051374;28;20028;-53
2022/10/23 08:52:10;;;;;;;8.88;5.78;;;20.40;76.30;;;;;;5051274;28;20013;-53
2022/10/23 08:54:51;;;;;;;10.95;6.63;;;20.40;76.90;;;;;;5051453;28;20067;-53
2022/10/23 08:57:20;;;;;;;8.10;4.65;;;20.50;76.80;;;;;;5051515;28;20048;-60
2022/10/23 08:59:50;;;;;;;12.98;4.07;;;20.50;76.90;;;;;;5051053;28;20025;-60
2022/10/23 09:02:23;;;;;;;8.48;4.68;;;20.60;76.60;;;;;;5051145;28;20515;-59
2022/10/23 09:04:51;;;;;;;6.18;3.90;;;20.70;76.30;;;;;;5054597;28;20021;-59
2022/10/23 09:07:45;;;;;;;9.13;4.45;;;20.70;76.30;;;;;;5055452;28;20027;-59
2022/10/23 09:10:33;;;;;;;8.48;3.72;;;20.80;75.20;;;;;;5055053;28;20455;-59
2022/10/23 09:13:14;;;;;;;9.93;5.22;;;20.80;76.00;;;;;;5055063;28;20017;-59
2022/10/23 09:15:45;;;;;;;10.32;5.05;;;20.90;75.80;;;;;;5054983;28;20036;-60
2022/10/23 09:18:13;;;;;;;8.50;4.78;;;21.00;75.60;;;;;;5054882;28;20103;-57
2022/10/23 09:20:42;;;;;;;13.98;5.10;;;21.10;75.10;;;;;;5054951;28;20029;-58
2022/10/23 09:23:21;;;;;;;10.85;5.40;;;21.20;75.20;;;;;;5054920;28;20104;-58
2022/10/23 09:25:54;;;;;;;9.80;5.28;;;21.30;74.60;;;;;;5054882;28;20063;-58
2022/10/23 09:28:22;;;;;;;13.27;7.35;;;21.40;73.30;;;;;;5054670;28;20017;-60
2022/10/23 09:30:49;;;;;;;15.18;10.25;;;21.50;74.10;;;;;;5054758;28;20393;-58
2022/10/23 09:33:17;;;;;;;13.93;9.20;;;21.50;74.10;;;;;;5054874;28;20096;-59
2022/10/23 09:36:17;;;;;;;15.52;9.68;;;21.60;74.30;;;;;;5054712;28;20223;-59
2022/10/23 09:38:45;;;;;;;18.95;9.98;;;21.60;73.40;;;;;;5054527;28;20029;-57
2022/10/23 09:41:11;;;;;;;14.68;9.63;;;21.60;73.70;;;;;;5054509;28;20537;-59
2022/10/23 09:43:37;;;;;;;17.13;11.00;;;21.70;73.80;;;;;;5054552;28;20116;-58
2022/10/23 09:46:05;;;;;;;13.48;10.05;;;21.80;73.60;;;;;;5054398;28;20111;-58
2022/10/23 09:48:33;;;;;;;15.13;10.73;;;21.90;73.50;;;;;;5054280;28;20029;-59
2022/10/23 09:51:02;;;;;;;15.65;9.73;;;22.00;72.90;;;;;;5054573;28;20022;-59
2022/10/23 09:53:32;;;;;;;8.10;4.90;;;22.10;72.70;;;;;;5054430;28;20025;-58
2022/10/23 09:56:02;;;;;;;13.60;6.68;;;22.20;72.50;;;;;;5054497;28;20079;-60
2022/10/23 09:58:34;;;;;;;12.25;6.07;;;22.30;72.50;;;;;;5054056;28;20116;-56
2022/10/23 10:01:00;;;;;;;11.25;4.93;;;22.50;72.20;;;;;;5054042;28;20052;-58
2022/10/23 10:03:26;;;;;;;10.27;6.27;;;22.60;72.10;;;;;;5054316;28;20496;-59
2022/10/23 10:06:03;;;;;;;7.13;5.60;;;22.60;71.30;;;;;;5054231;28;20060;-59
2022/10/23 10:08:46;;;;;;;12.50;5.80;;;22.50;70.30;;;;;;5054142;28;20028;-60
2022/10/23 10:11:21;;;;;;;16.60;7.63;;;22.50;71.30;;;;;;5054012;28;20095;-56
2022/10/23 10:14:00;;;;;;;12.82;6.38;;;22.50;71.50;;;;;;5053716;28;20021;-58
2022/10/23 10:16:48;;;;;;;11.00;6.45;;;22.50;71.20;;;;;;5054120;28;20036;-59
2022/10/23 10:19:38;;;;;;;18.33;6.60;;;22.60;71.30;;;;;;5052429;28;20033;-58
2022/10/23 10:22:16;;;;;;;14.05;6.28;;;22.40;71.90;;;;;;5053760;28;20040;-58
2022/10/23 10:24:52;;;;;;;11.15;5.97;;;22.50;72.00;;;;;;5053871;28;20045;-61
2022/10/23 10:27:56;;;;;;;12.15;6.63;;;22.50;71.80;;;;;;5053830;28;20400;-61
2022/10/23 10:30:23;;;;;;;19.45;7.63;;;22.60;71.50;;;;;;5053087;28;20033;-62
2022/10/23 10:33:19;;;;;;;13.52;6.97;;;22.60;71.50;;;;;;5053705;28;20026;-59
2022/10/23 10:36:11;;;;;;;10.73;5.63;;;22.70;71.70;;;;;;5053664;28;20031;-60
2022/10/23 10:38:55;;;;;;;8.52;6.03;;;22.80;70.50;;;;;;5053386;28;20033;-61
2022/10/23 10:41:27;;;;;;;12.27;7.25;;;22.90;70.90;;;;;;5053537;28;20048;-62
2022/10/23 10:44:23;;;;;;;12.88;6.60;;;23.00;70.20;;;;;;5053543;28;20108;-61
2022/10/23 10:46:58;;;;;;;24.42;17.80;;;23.10;69.90;;;;;;5053433;28;20025;-59
2022/10/23 10:49:45;;;;;;;11.13;9.32;;;23.20;70.10;;;;;;5053280;28;20044;-62
2022/10/23 10:52:48;;;;;;;13.93;7.90;;;23.30;68.30;;;;;;5053179;28;20028;-62
2022/10/23 10:55:36;;;;;;;13.00;7.07;;;23.40;68.70;;;;;;5049739;28;20036;-63
2022/10/23 10:58:13;;;;;;;8.25;6.15;;;23.50;68.50;;;;;;5044142;28;20394;-61
2022/10/23 11:00:40;;;;;;;12.65;6.65;;;;;;;;;;5043945;28;20674;-63
2022/10/23 11:03:24;;;;;;;9.18;6.55;;;23.50;68.90;;;;;;5046850;28;20056;-61
2022/10/23 11:05:52;;;;;;;9.20;6.70;;;23.70;68.10;;;;;;5052966;28;20109;-62
2022/10/23 11:08:34;;;;;;;14.57;7.28;;;23.80;68.10;;;;;;5042689;28;20030;-62
2022/10/23 11:11:07;;;;;;;13.90;7.35;;;23.80;68.00;;;;;;5032859;28;20080;-61
2022/10/23 11:13:39;;;;;;;12.60;6.80;;;23.90;67.80;;;;;;5036943;28;20048;-61
2022/10/23 11:16:22;;;;;;;12.48;7.55;;;24.00;67.70;;;;;;5043388;28;20021;-62
2022/10/23 11:19:20;;;;;;;13.38;7.20;;;24.00;66.20;;;;;;5048510;28;20071;-61
2022/10/23 11:21:51;;;;;;;16.85;7.50;;;24.10;66.40;;;;;;5052561;28;20175;-63
2022/10/23 11:24:23;;;;;;;10.70;6.68;;;;;;;;;;5052779;28;20025;-61
2022/10/23 11:27:16;;;;;;;16.20;7.10;;;24.20;66.50;;;;;;5051730;28;20025;-59
2022/10/23 11:29:56;;;;;;;73.30;40.88;;;24.30;64.70;;;;;;5052560;28;20071;-60
2022/10/23 11:32:53;;;;;;;17.05;10.43;;;24.30;66.40;;;;;;5052669;28;20082;-60
2022/10/23 11:35:37;;;;;;;16.20;8.20;;;24.40;65.20;;;;;;5042531;28;20045;-61
2022/10/23 11:38:11;;;;;;;15.27;8.35;;;24.50;65.50;;;;;;5049997;28;20078;-60
2022/10/23 11:40:53;;;;;;;20.95;6.70;;;24.50;65.10;;;;;;5043790;28;20549;-59
2022/10/23 11:43:56;;;;;;;14.48;7.00;;;24.60;65.70;;;;;;5050084;28;20602;-60
2022/10/23 11:46:24;;;;;;;11.25;7.53;;;24.80;64.70;;;;;;5063392;28;20404;-58
2022/10/23 11:48:51;;;;;;;14.23;7.10;;;24.80;65.00;;;;;;5041646;28;20584;-60
2022/10/23 11:51:34;;;;;;;13.63;7.15;;;24.90;63.70;;;;;;5048827;28;20029;-57
2022/10/23 11:54:23;;;;;;;15.18;7.25;;;25.00;64.40;;;;;;5052286;28;20017;-60
2022/10/23 11:57:04;;;;;;;18.30;7.25;;;25.10;63.50;;;;;;5052199;28;20031;-60
2022/10/23 11:59:34;;;;;;;10.77;6.80;;;25.20;63.20;;;;;;5051592;28;20041;-59
2022/10/23 12:02:26;;;;;;;14.77;7.03;;;25.30;63.50;;;;;;5052024;28;20021;-59
2022/10/23 12:04:53;;;;;;;14.68;6.97;;;25.30;61.50;;;;;;5051959;28;20036;-59
2022/10/23 12:07:25;;;;;;;10.00;7.20;;;25.20;64.20;;;;;;5052101;28;20025;-58
2022/10/23 12:09:55;;;;;;;10.80;6.68;;;25.10;63.10;;;;;;5051597;28;20029;-58
2022/10/23 12:12:33;;;;;;;11.18;7.07;;;25.10;63.00;;;;;;5051832;28;20062;-60
2022/10/23 12:15:10;;;;;;;12.27;7.57;;;25.00;63.40;;;;;;5051909;28;20108;-59
2022/10/23 12:17:41;;;;;;;15.52;6.57;;;24.90;63.90;;;;;;5051892;28;20092;-60
2022/10/23 12:20:07;;;;;;;11.40;6.88;;;24.90;64.30;;;;;;5051575;28;20091;-59
2022/10/23 12:22:53;;;;;;;16.83;7.57;;;24.80;64.50;;;;;;5066400;28;20529;-59
2022/10/23 12:25:26;;;;;;;11.45;6.82;;;24.90;64.30;;;;;;5051622;28;20029;-59
2022/10/23 12:28:25;;;;;;;13.15;7.70;;;24.90;64.50;;;;;;5050542;28;20066;-58
2022/10/23 12:31:10;;;;;;;16.13;7.80;;;24.80;63.80;;;;;;5051537;28;20029;-60
2022/10/23 12:34:04;;;;;;;20.95;7.15;;;24.70;64.00;;;;;;5051699;28;20029;-59
2022/10/23 12:36:54;;;;;;;14.40;7.28;;;24.70;64.50;;;;;;5051656;28;20059;-59
2022/10/23 12:39:24;;;;;;;14.25;7.40;;;24.70;65.10;;;;;;5057807;28;20032;-60
2022/10/23 12:41:50;;;;;;;10.73;6.78;;;24.70;64.70;;;;;;5058241;28;20059;-58
2022/10/23 12:44:16;;;;;;;15.87;8.07;;;24.80;64.90;;;;;;5058270;28;20057;-58
2022/10/23 12:46:47;;;;;;;18.20;7.20;;;24.80;64.90;;;;;;5058327;28;20032;-59
2022/10/23 12:49:18;;;;;;;13.52;7.40;;;25.00;64.50;;;;;;5058046;28;20032;-68
2022/10/23 12:51:45;;;;;;;13.55;7.53;;;25.10;64.10;;;;;;5058033;28;20021;-68
2022/10/23 12:54:18;;;;;;;16.73;6.88;;;25.30;63.20;;;;;;5058077;28;20485;-68
2022/10/23 12:56:45;;;;;;;14.70;7.32;;;25.40;62.60;;;;;;5058187;28;20024;-68
2022/10/23 12:59:25;;;;;;;16.90;6.63;;;25.50;62.80;;;;;;5073378;28;20033;-68
2022/10/23 13:01:52;;;;;;;13.82;7.65;;;25.70;62.00;;;;;;5058211;28;20115;-67